sensor_id;sensor_type;location;lat;lon;timestamp;P1;durP1;ratioP1;P2;durP2;ratioP2
7213;SDS011;3648;50.614;13.830;2022-07-04T00:00:41;3.60;;;3.30;;
7213;SDS011;3648;50.614;13.830;2022-07-04T00:03:08;3.13;;;2.83;;
7213;SDS011;3648;50.614;13.830;2022-07-04T00:05:35;2.97;;;2.43;;
7213;SDS011;3648;50.614;13.830;2022-07-04T00:08:02;4.20;;;2.60;;
7213;SDS011;3648;50.614;13.830;2022-07-04T00:10:30;3.13;;;2.93;;
7213;SDS011;3648;50.614;13.830;2022-07-04T00:12:57;2.90;;;2.70;;
7213;SDS011;3648;50.614;13.830;2022-07-04T00:15:25;3.17;;;2.87;;
7213;SDS011;3648;50.614;13.830;2022-07-04T00:17:52;3.77;;;3.47;;
7213;SDS011;3648;50.614;13.830;2022-07-04T00:20:19;3.13;;;2.90;;
7213;SDS011;3648;50.614;13.830;2022-07-04T00:22:46;2.83;;;2.63;;
7213;SDS011;3648;50.614;13.830;2022-07-04T00:25:13;3.43;;;3.13;;
7213;SDS011;3648;50.614;13.830;2022-07-04T00:27:40;3.40;;;3.10;;
7213;SDS011;3648;50.614;13.830;2022-07-04T00:30:07;3.23;;;2.93;;
7213;SDS011;3648;50.614;13.830;2022-07-04T00:32:36;3.70;;;3.30;;
7213;SDS011;3648;50.614;13.830;2022-07-04T00:35:04;4.53;;;3.50;;
7213;SDS011;3648;50.614;13.830;2022-07-04T00:37:32;3.73;;;3.10;;
7213;SDS011;3648;50.614;13.830;2022-07-04T00:39:59;3.97;;;3.20;;
7213;SDS011;3648;50.614;13.830;2022-07-04T00:42:26;3.53;;;3.23;;
7213;SDS011;3648;50.614;13.830;2022-07-04T00:44:53;3.30;;;3.00;;
7213;SDS011;3648;50.614;13.830;2022-07-04T00:47:20;3.77;;;3.10;;
7213;SDS011;3648;50.614;13.830;2022-07-04T00:49:48;3.50;;;3.00;;
7213;SDS011;3648;50.614;13.830;2022-07-04T00:52:15;3.50;;;3.10;;
7213;SDS011;3648;50.614;13.830;2022-07-04T00:54:43;3.27;;;2.90;;
7213;SDS011;3648;50.614;13.830;2022-07-04T00:57:11;5.07;;;3.00;;
7213;SDS011;3648;50.614;13.830;2022-07-04T00:59:38;3.83;;;3.53;;
7213;SDS011;3648;50.614;13.830;2022-07-04T01:02:05;3.97;;;3.40;;
7213;SDS011;3648;50.614;13.830;2022-07-04T01:04:33;3.70;;;3.40;;
7213;SDS011;3648;50.614;13.830;2022-07-04T01:07:02;3.70;;;3.40;;
7213;SDS011;3648;50.614;13.830;2022-07-04T01:09:30;5.00;;;3.47;;
7213;SDS011;3648;50.614;13.830;2022-07-04T01:11:57;3.57;;;3.10;;
7213;SDS011;3648;50.614;13.830;2022-07-04T01:14:24;3.90;;;3.60;;
7213;SDS011;3648;50.614;13.830;2022-07-04T01:16:51;4.37;;;3.70;;
7213;SDS011;3648;50.614;13.830;2022-07-04T01:19:18;5.80;;;3.80;;
7213;SDS011;3648;50.614;13.830;2022-07-04T01:21:46;6.13;;;3.57;;
7213;SDS011;3648;50.614;13.830;2022-07-04T01:24:13;4.33;;;3.73;;
7213;SDS011;3648;50.614;13.830;2022-07-04T01:26:40;5.37;;;4.63;;
7213;SDS011;3648;50.614;13.830;2022-07-04T01:29:07;3.83;;;3.53;;
7213;SDS011;3648;50.614;13.830;2022-07-04T01:31:34;4.03;;;3.67;;
7213;SDS011;3648;50.614;13.830;2022-07-04T01:34:01;4.57;;;3.40;;
7213;SDS011;3648;50.614;13.830;2022-07-04T01:36:28;6.23;;;4.47;;
7213;SDS011;3648;50.614;13.830;2022-07-04T01:38:57;6.67;;;4.13;;
7213;SDS011;3648;50.614;13.830;2022-07-04T01:41:24;6.50;;;4.07;;
7213;SDS011;3648;50.614;13.830;2022-07-04T01:43:51;4.13;;;3.80;;
7213;SDS011;3648;50.614;13.830;2022-07-04T01:46:18;4.37;;;3.87;;
7213;SDS011;3648;50.614;13.830;2022-07-04T01:48:44;5.50;;;3.80;;
7213;SDS011;3648;50.614;13.830;2022-07-04T01:51:11;4.73;;;4.33;;
7213;SDS011;3648;50.614;13.830;2022-07-04T01:53:38;4.27;;;3.87;;
7213;SDS011;3648;50.614;13.830;2022-07-04T01:56:07;4.40;;;4.07;;
7213;SDS011;3648;50.614;13.830;2022-07-04T01:58:34;4.30;;;3.90;;
7213;SDS011;3648;50.614;13.830;2022-07-04T02:01:01;5.07;;;4.57;;
7213;SDS011;3648;50.614;13.830;2022-07-04T02:03:45;4.47;;;4.07;;
7213;SDS011;3648;50.614;13.830;2022-07-04T02:06:12;4.43;;;3.70;;
7213;SDS011;3648;50.614;13.830;2022-07-04T02:08:39;4.10;;;3.70;;
7213;SDS011;3648;50.614;13.830;2022-07-04T02:11:25;3.97;;;3.57;;
7213;SDS011;3648;50.614;13.830;2022-07-04T02:13:52;4.23;;;3.90;;
7213;SDS011;3648;50.614;13.830;2022-07-04T02:16:18;4.87;;;4.10;;
7213;SDS011;3648;50.614;13.830;2022-07-04T02:18:46;3.90;;;3.50;;
7213;SDS011;3648;50.614;13.830;2022-07-04T02:21:12;4.20;;;3.80;;
7213;SDS011;3648;50.614;13.830;2022-07-04T02:23:39;5.27;;;3.90;;
7213;SDS011;3648;50.614;13.830;2022-07-04T02:26:06;3.20;;;3.00;;
7213;SDS011;3648;50.614;13.830;2022-07-04T02:28:35;4.53;;;3.47;;
7213;SDS011;3648;50.614;13.830;2022-07-04T02:31:02;3.83;;;2.93;;
7213;SDS011;3648;50.614;13.830;2022-07-04T02:33:29;4.43;;;2.90;;
7213;SDS011;3648;50.614;13.830;2022-07-04T02:35:55;2.67;;;2.47;;
7213;SDS011;3648;50.614;13.830;2022-07-04T02:38:22;3.23;;;2.50;;
7213;SDS011;3648;50.614;13.830;2022-07-04T02:40:49;2.40;;;2.20;;
7213;SDS011;3648;50.614;13.830;2022-07-04T02:43:16;2.93;;;1.83;;
7213;SDS011;3648;50.614;13.830;2022-07-04T02:45:44;2.13;;;1.93;;
7213;SDS011;3648;50.614;13.830;2022-07-04T02:48:11;3.57;;;2.50;;
7213;SDS011;3648;50.614;13.830;2022-07-04T02:50:38;3.00;;;2.80;;
7213;SDS011;3648;50.614;13.830;2022-07-04T02:53:05;3.83;;;2.67;;
7213;SDS011;3648;50.614;13.830;2022-07-04T02:55:32;3.20;;;2.33;;
7213;SDS011;3648;50.614;13.830;2022-07-04T02:57:59;2.90;;;2.27;;
7213;SDS011;3648;50.614;13.830;2022-07-04T03:00:26;2.70;;;2.50;;
7213;SDS011;3648;50.614;13.830;2022-07-04T03:02:55;3.57;;;2.10;;
7213;SDS011;3648;50.614;13.830;2022-07-04T03:05:22;3.43;;;2.30;;
7213;SDS011;3648;50.614;13.830;2022-07-04T03:07:49;3.77;;;2.40;;
7213;SDS011;3648;50.614;13.830;2022-07-04T03:10:16;2.60;;;2.10;;
7213;SDS011;3648;50.614;13.830;2022-07-04T03:12:43;2.83;;;2.40;;
7213;SDS011;3648;50.614;13.830;2022-07-04T03:15:10;3.27;;;2.17;;
7213;SDS011;3648;50.614;13.830;2022-07-04T03:17:37;3.03;;;2.20;;
7213;SDS011;3648;50.614;13.830;2022-07-04T03:20:06;3.00;;;2.30;;
7213;SDS011;3648;50.614;13.830;2022-07-04T03:22:33;3.57;;;2.13;;
7213;SDS011;3648;50.614;13.830;2022-07-04T03:25:00;2.27;;;2.07;;
7213;SDS011;3648;50.614;13.830;2022-07-04T03:27:27;1.97;;;1.77;;
7213;SDS011;3648;50.614;13.830;2022-07-04T03:29:54;2.07;;;1.90;;
7213;SDS011;3648;50.614;13.830;2022-07-04T03:32:21;2.77;;;2.13;;
7213;SDS011;3648;50.614;13.830;2022-07-04T03:34:48;4.80;;;2.23;;
7213;SDS011;3648;50.614;13.830;2022-07-04T03:37:16;2.60;;;2.40;;
7213;SDS011;3648;50.614;13.830;2022-07-04T03:39:43;2.17;;;1.97;;
7213;SDS011;3648;50.614;13.830;2022-07-04T03:42:10;2.40;;;2.20;;
7213;SDS011;3648;50.614;13.830;2022-07-04T03:44:37;2.23;;;2.03;;
7213;SDS011;3648;50.614;13.830;2022-07-04T03:47:04;2.70;;;1.80;;
7213;SDS011;3648;50.614;13.830;2022-07-04T03:49:31;4.47;;;1.90;;
7213;SDS011;3648;50.614;13.830;2022-07-04T03:51:58;2.13;;;2.03;;
7213;SDS011;3648;50.614;13.830;2022-07-04T03:54:26;2.57;;;1.90;;
7213;SDS011;3648;50.614;13.830;2022-07-04T03:56:54;2.40;;;2.20;;
7213;SDS011;3648;50.614;13.830;2022-07-04T03:59:21;2.27;;;1.97;;
7213;SDS011;3648;50.614;13.830;2022-07-04T04:01:48;2.43;;;1.97;;
7213;SDS011;3648;50.614;13.830;2022-07-04T04:04:15;2.20;;;2.10;;
7213;SDS011;3648;50.614;13.830;2022-07-04T04:06:59;3.43;;;2.67;;
7213;SDS011;3648;50.614;13.830;2022-07-04T04:09:27;2.97;;;2.77;;
7213;SDS011;3648;50.614;13.830;2022-07-04T04:11:54;2.93;;;2.57;;
7213;SDS011;3648;50.614;13.830;2022-07-04T04:14:21;4.47;;;2.87;;
7213;SDS011;3648;50.614;13.830;2022-07-04T04:16:49;3.93;;;2.80;;
7213;SDS011;3648;50.614;13.830;2022-07-04T04:19:16;2.93;;;2.53;;
7213;SDS011;3648;50.614;13.830;2022-07-04T04:21:43;3.27;;;2.93;;
7213;SDS011;3648;50.614;13.830;2022-07-04T04:24:10;3.30;;;2.60;;
7213;SDS011;3648;50.614;13.830;2022-07-04T04:26:39;2.47;;;2.27;;
7213;SDS011;3648;50.614;13.830;2022-07-04T04:29:05;1.97;;;1.87;;
7213;SDS011;3648;50.614;13.830;2022-07-04T04:31:32;2.47;;;2.27;;
7213;SDS011;3648;50.614;13.830;2022-07-04T04:33:59;3.47;;;1.97;;
7213;SDS011;3648;50.614;13.830;2022-07-04T04:36:26;2.60;;;2.23;;
7213;SDS011;3648;50.614;13.830;2022-07-04T04:38:53;2.50;;;2.20;;
7213;SDS011;3648;50.614;13.830;2022-07-04T04:41:20;2.87;;;2.20;;
7213;SDS011;3648;50.614;13.830;2022-07-04T04:43:49;2.20;;;2.00;;
7213;SDS011;3648;50.614;13.830;2022-07-04T04:46:16;1.80;;;1.70;;
7213;SDS011;3648;50.614;13.830;2022-07-04T04:48:43;2.03;;;1.60;;
7213;SDS011;3648;50.614;13.830;2022-07-04T04:51:10;1.90;;;1.80;;
7213;SDS011;3648;50.614;13.830;2022-07-04T04:53:37;2.00;;;1.57;;
7213;SDS011;3648;50.614;13.830;2022-07-04T04:56:04;1.70;;;1.60;;
7213;SDS011;3648;50.614;13.830;2022-07-04T04:58:31;4.70;;;1.80;;
7213;SDS011;3648;50.614;13.830;2022-07-04T05:00:59;3.17;;;1.60;;
7213;SDS011;3648;50.614;13.830;2022-07-04T05:03:27;2.37;;;1.70;;
7213;SDS011;3648;50.614;13.830;2022-07-04T05:05:54;1.50;;;1.40;;
7213;SDS011;3648;50.614;13.830;2022-07-04T05:08:21;3.03;;;1.53;;
7213;SDS011;3648;50.614;13.830;2022-07-04T05:10:49;6.43;;;1.73;;
7213;SDS011;3648;50.614;13.830;2022-07-04T05:13:16;3.40;;;2.00;;
7213;SDS011;3648;50.614;13.830;2022-07-04T05:15:43;3.63;;;1.83;;
7213;SDS011;3648;50.614;13.830;2022-07-04T05:18:12;1.93;;;1.83;;
7213;SDS011;3648;50.614;13.830;2022-07-04T05:20:40;1.73;;;1.50;;
7213;SDS011;3648;50.614;13.830;2022-07-04T05:23:07;2.13;;;1.50;;
7213;SDS011;3648;50.614;13.830;2022-07-04T05:25:34;2.30;;;2.00;;
7213;SDS011;3648;50.614;13.830;2022-07-04T05:28:01;1.50;;;1.40;;
7213;SDS011;3648;50.614;13.830;2022-07-04T05:30:28;2.20;;;1.80;;
7213;SDS011;3648;50.614;13.830;2022-07-04T05:32:55;12.17;;;2.83;;
7213;SDS011;3648;50.614;13.830;2022-07-04T05:35:24;4.17;;;1.97;;
7213;SDS011;3648;50.614;13.830;2022-07-04T05:37:52;4.73;;;1.70;;
7213;SDS011;3648;50.614;13.830;2022-07-04T05:40:19;2.00;;;1.70;;
7213;SDS011;3648;50.614;13.830;2022-07-04T05:42:46;2.50;;;1.83;;
7213;SDS011;3648;50.614;13.830;2022-07-04T05:45:13;2.33;;;1.70;;
7213;SDS011;3648;50.614;13.830;2022-07-04T05:47:41;1.70;;;1.60;;
7213;SDS011;3648;50.614;13.830;2022-07-04T05:50:09;2.33;;;1.50;;
7213;SDS011;3648;50.614;13.830;2022-07-04T05:52:37;2.70;;;1.60;;
7213;SDS011;3648;50.614;13.830;2022-07-04T05:55:04;2.50;;;1.63;;
7213;SDS011;3648;50.614;13.830;2022-07-04T05:57:32;2.83;;;1.70;;
7213;SDS011;3648;50.614;13.830;2022-07-04T05:59:59;2.77;;;2.00;;
7213;SDS011;3648;50.614;13.830;2022-07-04T06:02:26;4.07;;;1.70;;
7213;SDS011;3648;50.614;13.830;2022-07-04T06:04:53;2.57;;;1.93;;
7213;SDS011;3648;50.614;13.830;2022-07-04T06:07:20;3.37;;;2.30;;
7213;SDS011;3648;50.614;13.830;2022-07-04T06:09:49;5.00;;;2.27;;
7213;SDS011;3648;50.614;13.830;2022-07-04T06:12:16;2.57;;;1.90;;
7213;SDS011;3648;50.614;13.830;2022-07-04T06:14:43;2.73;;;1.60;;
7213;SDS011;3648;50.614;13.830;2022-07-04T06:17:10;3.50;;;1.67;;
7213;SDS011;3648;50.614;13.830;2022-07-04T06:19:38;1.53;;;1.43;;
7213;SDS011;3648;50.614;13.830;2022-07-04T06:22:05;2.80;;;1.50;;
7213;SDS011;3648;50.614;13.830;2022-07-04T06:24:31;3.93;;;1.73;;
7213;SDS011;3648;50.614;13.830;2022-07-04T06:27:00;1.47;;;1.30;;
7213;SDS011;3648;50.614;13.830;2022-07-04T06:29:28;1.47;;;1.37;;
7213;SDS011;3648;50.614;13.830;2022-07-04T06:31:55;1.97;;;1.77;;
7213;SDS011;3648;50.614;13.830;2022-07-04T06:34:22;1.63;;;1.50;;
7213;SDS011;3648;50.614;13.830;2022-07-04T06:37:06;1.97;;;1.60;;
7213;SDS011;3648;50.614;13.830;2022-07-04T06:39:33;2.70;;;1.47;;
7213;SDS011;3648;50.614;13.830;2022-07-04T06:42:02;1.63;;;1.47;;
7213;SDS011;3648;50.614;13.830;2022-07-04T06:44:29;2.07;;;1.50;;
7213;SDS011;3648;50.614;13.830;2022-07-04T06:46:56;1.10;;;1.00;;
7213;SDS011;3648;50.614;13.830;2022-07-04T06:49:23;2.93;;;1.30;;
7213;SDS011;3648;50.614;13.830;2022-07-04T06:51:50;1.93;;;1.30;;
7213;SDS011;3648;50.614;13.830;2022-07-04T06:54:17;1.60;;;1.40;;
7213;SDS011;3648;50.614;13.830;2022-07-04T06:56:44;1.50;;;1.40;;
7213;SDS011;3648;50.614;13.830;2022-07-04T06:59:12;1.60;;;1.50;;
7213;SDS011;3648;50.614;13.830;2022-07-04T07:01:39;2.30;;;1.80;;
7213;SDS011;3648;50.614;13.830;2022-07-04T07:04:06;1.90;;;1.70;;
7213;SDS011;3648;50.614;13.830;2022-07-04T07:06:34;2.17;;;1.97;;
7213;SDS011;3648;50.614;13.830;2022-07-04T07:09:01;2.23;;;1.50;;
7213;SDS011;3648;50.614;13.830;2022-07-04T07:11:28;1.97;;;1.50;;
7213;SDS011;3648;50.614;13.830;2022-07-04T07:13:55;4.13;;;1.73;;
7213;SDS011;3648;50.614;13.830;2022-07-04T07:16:23;2.33;;;1.93;;
7213;SDS011;3648;50.614;13.830;2022-07-04T07:18:51;1.40;;;1.30;;
7213;SDS011;3648;50.614;13.830;2022-07-04T07:21:18;3.30;;;1.70;;
7213;SDS011;3648;50.614;13.830;2022-07-04T07:23:45;1.73;;;1.50;;
7213;SDS011;3648;50.614;13.830;2022-07-04T07:26:12;2.20;;;1.50;;
7213;SDS011;3648;50.614;13.830;2022-07-04T07:28:39;6.20;;;1.90;;
7213;SDS011;3648;50.614;13.830;2022-07-04T07:31:06;2.17;;;1.83;;
7213;SDS011;3648;50.614;13.830;2022-07-04T07:33:34;2.40;;;1.43;;
7213;SDS011;3648;50.614;13.830;2022-07-04T07:36:01;2.17;;;1.37;;
7213;SDS011;3648;50.614;13.830;2022-07-04T07:38:28;6.30;;;1.83;;
7213;SDS011;3648;50.614;13.830;2022-07-04T07:40:55;2.70;;;1.37;;
7213;SDS011;3648;50.614;13.830;2022-07-04T07:43:22;2.27;;;1.67;;
7213;SDS011;3648;50.614;13.830;2022-07-04T07:45:50;3.27;;;1.50;;
7213;SDS011;3648;50.614;13.830;2022-07-04T07:48:17;3.33;;;1.53;;
7213;SDS011;3648;50.614;13.830;2022-07-04T07:50:45;2.37;;;1.53;;
7213;SDS011;3648;50.614;13.830;2022-07-04T07:53:12;2.47;;;1.83;;
7213;SDS011;3648;50.614;13.830;2022-07-04T07:55:39;2.30;;;1.40;;
7213;SDS011;3648;50.614;13.830;2022-07-04T07:58:07;4.20;;;1.90;;
7213;SDS011;3648;50.614;13.830;2022-07-04T08:00:33;2.00;;;1.50;;
7213;SDS011;3648;50.614;13.830;2022-07-04T08:03:01;3.13;;;1.57;;
7213;SDS011;3648;50.614;13.830;2022-07-04T08:05:47;5.87;;;1.70;;
7213;SDS011;3648;50.614;13.830;2022-07-04T08:08:14;2.23;;;1.47;;
7213;SDS011;3648;50.614;13.830;2022-07-04T08:10:41;2.10;;;1.63;;
7213;SDS011;3648;50.614;13.830;2022-07-04T08:13:08;3.00;;;1.70;;
7213;SDS011;3648;50.614;13.830;2022-07-04T08:15:35;3.43;;;1.67;;
7213;SDS011;3648;50.614;13.830;2022-07-04T08:18:02;2.90;;;1.50;;
7213;SDS011;3648;50.614;13.830;2022-07-04T08:20:29;2.23;;;1.70;;
7213;SDS011;3648;50.614;13.830;2022-07-04T08:22:57;2.10;;;1.60;;
7213;SDS011;3648;50.614;13.830;2022-07-04T08:25:24;3.37;;;1.50;;
7213;SDS011;3648;50.614;13.830;2022-07-04T08:27:51;2.57;;;1.70;;
7213;SDS011;3648;50.614;13.830;2022-07-04T08:30:18;2.27;;;1.67;;
7213;SDS011;3648;50.614;13.830;2022-07-04T08:32:45;4.63;;;1.90;;
7213;SDS011;3648;50.614;13.830;2022-07-04T08:35:12;3.90;;;1.67;;
7213;SDS011;3648;50.614;13.830;2022-07-04T08:37:39;3.10;;;1.80;;
7213;SDS011;3648;50.614;13.830;2022-07-04T08:40:09;2.17;;;1.97;;
7213;SDS011;3648;50.614;13.830;2022-07-04T08:42:37;2.60;;;1.70;;
7213;SDS011;3648;50.614;13.830;2022-07-04T08:45:05;2.60;;;1.63;;
7213;SDS011;3648;50.614;13.830;2022-07-04T08:47:33;2.73;;;1.73;;
7213;SDS011;3648;50.614;13.830;2022-07-04T08:50:06;2.00;;;1.60;;
7213;SDS011;3648;50.614;13.830;2022-07-04T08:52:38;1.70;;;1.40;;
7213;SDS011;3648;50.614;13.830;2022-07-04T08:55:07;1.80;;;1.47;;
7213;SDS011;3648;50.614;13.830;2022-07-04T08:57:55;2.70;;;1.50;;
7213;SDS011;3648;50.614;13.830;2022-07-04T09:00:39;1.60;;;1.50;;
7213;SDS011;3648;50.614;13.830;2022-07-04T09:03:07;1.93;;;1.60;;
7213;SDS011;3648;50.614;13.830;2022-07-04T09:05:35;4.97;;;1.80;;
7213;SDS011;3648;50.614;13.830;2022-07-04T09:08:03;2.93;;;1.70;;
7213;SDS011;3648;50.614;13.830;2022-07-04T09:10:32;2.10;;;1.53;;
7213;SDS011;3648;50.614;13.830;2022-07-04T09:13:00;2.17;;;1.30;;
7213;SDS011;3648;50.614;13.830;2022-07-04T09:15:29;1.53;;;1.43;;
7213;SDS011;3648;50.614;13.830;2022-07-04T09:17:56;1.80;;;1.57;;
7213;SDS011;3648;50.614;13.830;2022-07-04T09:20:24;2.47;;;1.40;;
7213;SDS011;3648;50.614;13.830;2022-07-04T09:22:51;2.73;;;1.70;;
7213;SDS011;3648;50.614;13.830;2022-07-04T09:25:20;2.77;;;1.47;;
7213;SDS011;3648;50.614;13.830;2022-07-04T09:27:49;2.00;;;1.40;;
7213;SDS011;3648;50.614;13.830;2022-07-04T09:30:18;4.13;;;1.80;;
7213;SDS011;3648;50.614;13.830;2022-07-04T09:32:46;1.67;;;1.57;;
7213;SDS011;3648;50.614;13.830;2022-07-04T09:35:16;2.10;;;1.67;;
7213;SDS011;3648;50.614;13.830;2022-07-04T09:37:44;2.93;;;2.00;;
7213;SDS011;3648;50.614;13.830;2022-07-04T09:40:20;2.87;;;1.57;;
7213;SDS011;3648;50.614;13.830;2022-07-04T09:42:50;2.20;;;1.40;;
7213;SDS011;3648;50.614;13.830;2022-07-04T09:45:18;2.57;;;1.60;;
7213;SDS011;3648;50.614;13.830;2022-07-04T09:47:46;2.10;;;1.80;;
7213;SDS011;3648;50.614;13.830;2022-07-04T09:50:14;4.33;;;1.67;;
7213;SDS011;3648;50.614;13.830;2022-07-04T09:52:47;3.23;;;1.77;;
7213;SDS011;3648;50.614;13.830;2022-07-04T09:55:23;1.63;;;1.50;;
7213;SDS011;3648;50.614;13.830;2022-07-04T09:57:53;2.37;;;1.80;;
7213;SDS011;3648;50.614;13.830;2022-07-04T10:00:22;3.73;;;1.83;;
7213;SDS011;3648;50.614;13.830;2022-07-04T10:02:52;2.60;;;1.80;;
7213;SDS011;3648;50.614;13.830;2022-07-04T10:05:21;2.33;;;1.70;;
7213;SDS011;3648;50.614;13.830;2022-07-04T10:07:50;2.60;;;1.50;;
7213;SDS011;3648;50.614;13.830;2022-07-04T10:10:24;4.57;;;1.73;;
7213;SDS011;3648;50.614;13.830;2022-07-04T10:13:05;4.67;;;1.70;;
7213;SDS011;3648;50.614;13.830;2022-07-04T10:15:34;2.57;;;2.17;;
7213;SDS011;3648;50.614;13.830;2022-07-04T10:18:03;2.00;;;1.80;;
7213;SDS011;3648;50.614;13.830;2022-07-04T10:20:31;3.33;;;2.00;;
7213;SDS011;3648;50.614;13.830;2022-07-04T10:22:58;2.67;;;2.10;;
7213;SDS011;3648;50.614;13.830;2022-07-04T10:25:25;4.30;;;2.03;;
7213;SDS011;3648;50.614;13.830;2022-07-04T10:27:52;2.57;;;2.00;;
7213;SDS011;3648;50.614;13.830;2022-07-04T10:30:22;3.40;;;2.00;;
7213;SDS011;3648;50.614;13.830;2022-07-04T10:32:51;3.23;;;1.80;;
7213;SDS011;3648;50.614;13.830;2022-07-04T10:38:14;3.93;;;2.00;;
7213;SDS011;3648;50.614;13.830;2022-07-04T10:40:46;2.83;;;1.70;;
7213;SDS011;3648;50.614;13.830;2022-07-04T10:46:27;3.37;;;2.00;;
7213;SDS011;3648;50.614;13.830;2022-07-04T10:48:58;2.40;;;1.90;;
7213;SDS011;3648;50.614;13.830;2022-07-04T10:51:40;3.47;;;2.00;;
7213;SDS011;3648;50.614;13.830;2022-07-04T10:54:09;2.57;;;2.03;;
7213;SDS011;3648;50.614;13.830;2022-07-04T10:56:41;4.40;;;1.90;;
7213;SDS011;3648;50.614;13.830;2022-07-04T10:59:11;3.00;;;1.93;;
7213;SDS011;3648;50.614;13.830;2022-07-04T11:01:45;2.80;;;1.80;;
7213;SDS011;3648;50.614;13.830;2022-07-04T11:04:13;1.93;;;1.60;;
7213;SDS011;3648;50.614;13.830;2022-07-04T11:07:14;2.87;;;1.77;;
7213;SDS011;3648;50.614;13.830;2022-07-04T11:09:41;6.07;;;2.03;;
7213;SDS011;3648;50.614;13.830;2022-07-04T11:12:09;2.13;;;1.80;;
7213;SDS011;3648;50.614;13.830;2022-07-04T11:14:39;4.63;;;2.17;;
7213;SDS011;3648;50.614;13.830;2022-07-04T11:17:09;3.03;;;2.30;;
7213;SDS011;3648;50.614;13.830;2022-07-04T11:19:37;2.20;;;2.00;;
7213;SDS011;3648;50.614;13.830;2022-07-04T11:22:05;4.40;;;1.90;;
7213;SDS011;3648;50.614;13.830;2022-07-04T11:24:34;2.93;;;1.90;;
7213;SDS011;3648;50.614;13.830;2022-07-04T11:27:01;2.43;;;1.70;;
7213;SDS011;3648;50.614;13.830;2022-07-04T11:29:29;3.20;;;2.20;;
7213;SDS011;3648;50.614;13.830;2022-07-04T11:31:56;2.10;;;1.43;;
7213;SDS011;3648;50.614;13.830;2022-07-04T11:34:25;2.07;;;1.77;;
7213;SDS011;3648;50.614;13.830;2022-07-04T11:36:58;3.63;;;1.80;;
7213;SDS011;3648;50.614;13.830;2022-07-04T11:39:26;1.77;;;1.63;;
7213;SDS011;3648;50.614;13.830;2022-07-04T11:41:53;2.13;;;1.73;;
7213;SDS011;3648;50.614;13.830;2022-07-04T11:44:37;2.77;;;1.73;;
7213;SDS011;3648;50.614;13.830;2022-07-04T11:47:23;5.50;;;1.77;;
7213;SDS011;3648;50.614;13.830;2022-07-04T11:49:53;1.90;;;1.70;;
7213;SDS011;3648;50.614;13.830;2022-07-04T11:52:21;2.00;;;1.90;;
7213;SDS011;3648;50.614;13.830;2022-07-04T11:54:50;2.47;;;1.67;;
7213;SDS011;3648;50.614;13.830;2022-07-04T11:57:19;2.40;;;2.20;;
7213;SDS011;3648;50.614;13.830;2022-07-04T11:59:52;3.03;;;2.03;;
7213;SDS011;3648;50.614;13.830;2022-07-04T12:02:21;2.07;;;1.67;;
7213;SDS011;3648;50.614;13.830;2022-07-04T12:04:48;3.07;;;1.80;;
7213;SDS011;3648;50.614;13.830;2022-07-04T12:07:18;2.47;;;2.07;;
7213;SDS011;3648;50.614;13.830;2022-07-04T12:09:47;3.27;;;1.90;;
7213;SDS011;3648;50.614;13.830;2022-07-04T12:12:14;3.97;;;1.97;;
7213;SDS011;3648;50.614;13.830;2022-07-04T12:17:29;2.27;;;1.80;;
7213;SDS011;3648;50.614;13.830;2022-07-04T12:19:58;1.97;;;1.80;;
7213;SDS011;3648;50.614;13.830;2022-07-04T12:22:29;6.33;;;2.07;;
7213;SDS011;3648;50.614;13.830;2022-07-04T12:24:58;3.43;;;1.93;;
7213;SDS011;3648;50.614;13.830;2022-07-04T12:27:27;5.67;;;2.10;;
7213;SDS011;3648;50.614;13.830;2022-07-04T12:29:54;8.10;;;2.40;;
7213;SDS011;3648;50.614;13.830;2022-07-04T12:32:24;2.30;;;2.10;;
7213;SDS011;3648;50.614;13.830;2022-07-04T12:35:10;4.30;;;2.40;;
7213;SDS011;3648;50.614;13.830;2022-07-04T12:38:01;2.57;;;2.30;;
7213;SDS011;3648;50.614;13.830;2022-07-04T12:40:28;7.53;;;3.20;;
7213;SDS011;3648;50.614;13.830;2022-07-04T12:42:55;5.43;;;3.30;;
7213;SDS011;3648;50.614;13.830;2022-07-04T12:45:22;8.47;;;4.23;;
7213;SDS011;3648;50.614;13.830;2022-07-04T12:47:50;7.40;;;4.17;;
7213;SDS011;3648;50.614;13.830;2022-07-04T12:50:24;10.07;;;5.07;;
7213;SDS011;3648;50.614;13.830;2022-07-04T12:52:52;5.30;;;2.80;;
7213;SDS011;3648;50.614;13.830;2022-07-04T12:55:20;4.57;;;2.90;;
7213;SDS011;3648;50.614;13.830;2022-07-04T12:57:47;2.47;;;2.27;;
7213;SDS011;3648;50.614;13.830;2022-07-04T13:00:15;4.37;;;3.13;;
7213;SDS011;3648;50.614;13.830;2022-07-04T13:02:42;4.37;;;3.30;;
7213;SDS011;3648;50.614;13.830;2022-07-04T13:05:09;3.30;;;3.00;;
7213;SDS011;3648;50.614;13.830;2022-07-04T13:07:36;3.57;;;3.27;;
7213;SDS011;3648;50.614;13.830;2022-07-04T13:10:04;4.97;;;3.70;;
7213;SDS011;3648;50.614;13.830;2022-07-04T13:12:33;5.17;;;3.53;;
7213;SDS011;3648;50.614;13.830;2022-07-04T13:15:00;3.47;;;3.00;;
7213;SDS011;3648;50.614;13.830;2022-07-04T13:17:27;4.67;;;3.37;;
7213;SDS011;3648;50.614;13.830;2022-07-04T13:19:54;3.70;;;3.40;;
7213;SDS011;3648;50.614;13.830;2022-07-04T13:22:21;3.83;;;3.53;;
7213;SDS011;3648;50.614;13.830;2022-07-04T13:24:49;3.67;;;3.07;;
7213;SDS011;3648;50.614;13.830;2022-07-04T13:27:16;3.50;;;3.20;;
7213;SDS011;3648;50.614;13.830;2022-07-04T13:29:45;3.70;;;3.40;;
7213;SDS011;3648;50.614;13.830;2022-07-04T13:32:13;3.47;;;3.17;;
7213;SDS011;3648;50.614;13.830;2022-07-04T13:34:40;3.70;;;3.40;;
7213;SDS011;3648;50.614;13.830;2022-07-04T13:37:07;4.10;;;3.70;;
7213;SDS011;3648;50.614;13.830;2022-07-04T13:39:34;3.93;;;3.30;;
7213;SDS011;3648;50.614;13.830;2022-07-04T13:42:01;3.53;;;2.80;;
7213;SDS011;3648;50.614;13.830;2022-07-04T13:44:28;4.27;;;3.60;;
7213;SDS011;3648;50.614;13.830;2022-07-04T13:46:57;4.00;;;3.53;;
7213;SDS011;3648;50.614;13.830;2022-07-04T13:49:24;3.97;;;3.60;;
7213;SDS011;3648;50.614;13.830;2022-07-04T13:51:51;4.07;;;3.67;;
7213;SDS011;3648;50.614;13.830;2022-07-04T13:54:19;4.30;;;3.80;;
7213;SDS011;3648;50.614;13.830;2022-07-04T13:56:47;4.43;;;3.63;;
7213;SDS011;3648;50.614;13.830;2022-07-04T13:59:14;4.07;;;3.67;;
7213;SDS011;3648;50.614;13.830;2022-07-04T14:01:41;5.33;;;4.30;;
7213;SDS011;3648;50.614;13.830;2022-07-04T14:04:10;4.17;;;3.87;;
7213;SDS011;3648;50.614;13.830;2022-07-04T14:06:37;4.80;;;4.00;;
7213;SDS011;3648;50.614;13.830;2022-07-04T14:09:04;3.67;;;3.37;;
7213;SDS011;3648;50.614;13.830;2022-07-04T14:11:31;3.80;;;3.50;;
7213;SDS011;3648;50.614;13.830;2022-07-04T14:13:58;3.93;;;3.63;;
7213;SDS011;3648;50.614;13.830;2022-07-04T14:16:26;3.70;;;3.40;;
7213;SDS011;3648;50.614;13.830;2022-07-04T14:18:53;3.80;;;3.50;;
7213;SDS011;3648;50.614;13.830;2022-07-04T14:21:21;3.70;;;3.40;;
7213;SDS011;3648;50.614;13.830;2022-07-04T14:23:48;4.23;;;3.60;;
7213;SDS011;3648;50.614;13.830;2022-07-04T14:26:17;4.13;;;3.73;;
7213;SDS011;3648;50.614;13.830;2022-07-04T14:28:45;4.13;;;3.80;;
7213;SDS011;3648;50.614;13.830;2022-07-04T14:31:12;4.43;;;4.13;;
7213;SDS011;3648;50.614;13.830;2022-07-04T14:33:40;4.17;;;3.87;;
7213;SDS011;3648;50.614;13.830;2022-07-04T14:36:07;4.30;;;3.73;;
7213;SDS011;3648;50.614;13.830;2022-07-04T14:38:36;5.73;;;4.00;;
7213;SDS011;3648;50.614;13.830;2022-07-04T14:41:04;4.37;;;3.97;;
7213;SDS011;3648;50.614;13.830;2022-07-04T14:43:38;5.33;;;3.90;;
7213;SDS011;3648;50.614;13.830;2022-07-04T14:46:06;5.20;;;3.50;;
7213;SDS011;3648;50.614;13.830;2022-07-04T14:48:33;6.40;;;4.40;;
7213;SDS011;3648;50.614;13.830;2022-07-04T14:51:01;5.13;;;4.17;;
7213;SDS011;3648;50.614;13.830;2022-07-04T14:53:28;4.97;;;4.40;;
7213;SDS011;3648;50.614;13.830;2022-07-04T14:55:57;4.47;;;4.07;;
7213;SDS011;3648;50.614;13.830;2022-07-04T14:58:24;4.97;;;4.57;;
7213;SDS011;3648;50.614;13.830;2022-07-04T15:00:51;4.70;;;4.20;;
7213;SDS011;3648;50.614;13.830;2022-07-04T15:03:18;6.50;;;4.10;;
7213;SDS011;3648;50.614;13.830;2022-07-04T15:05:45;4.63;;;4.23;;
7213;SDS011;3648;50.614;13.830;2022-07-04T15:08:12;4.33;;;3.97;;
7213;SDS011;3648;50.614;13.830;2022-07-04T15:10:40;4.30;;;3.67;;
7213;SDS011;3648;50.614;13.830;2022-07-04T15:13:09;6.07;;;3.93;;
7213;SDS011;3648;50.614;13.830;2022-07-04T15:15:36;3.80;;;3.50;;